createdAt,value
2022-09-06T00:00:42.120Z,59.54
2022-09-06T00:03:12.395Z,60.01
2022-09-06T00:05:45.312Z,59.70
2022-09-06T00:08:16.055Z,61.16
2022-09-06T00:10:49.507Z,60.55
2022-09-06T00:13:22.372Z,59.74
2022-09-06T00:15:52.333Z,60.51
2022-09-06T00:18:21.057Z,59.79
2022-09-06T00:20:52.081Z,59.75
2022-09-06T00:23:24.907Z,60.13
2022-09-06T00:26:10.649Z,61.01
2022-09-06T00:28:43.629Z,61.15
2022-09-06T00:31:15.821Z,60.70
2022-09-06T00:33:46.057Z,60.49
2022-09-06T00:36:16.414Z,59.85
2022-09-06T00:38:51.263Z,59.86
2022-09-06T00:41:21.537Z,60.17
2022-09-06T00:43:51.778Z,59.82
2022-09-06T00:46:24.023Z,60.00
2022-09-06T00:48:54.872Z,60.43
2022-09-06T00:51:23.277Z,59.90
2022-09-06T00:53:57.023Z,60.06
2022-09-06T00:56:28.112Z,60.29
2022-09-06T00:59:04.172Z,60.59
2022-09-06T01:01:35.350Z,60.45
2022-09-06T01:04:27.803Z,60.30
2022-09-06T01:07:04.642Z,60.20
2022-09-06T01:09:43.212Z,60.11
2022-09-06T01:12:19.123Z,60.12
2022-09-06T01:14:52.591Z,60.04
2022-09-06T01:17:26.520Z,59.98
2022-09-06T01:20:09.861Z,61.33
2022-09-06T01:22:56.105Z,61.71
2022-09-06T01:25:44.298Z,62.28
2022-09-06T01:28:24.335Z,62.44
2022-09-06T01:31:01.338Z,62.84
2022-09-06T01:33:38.539Z,62.36
2022-09-06T01:36:13.022Z,62.38
2022-09-06T01:38:41.059Z,61.68
2022-09-06T01:41:17.416Z,61.34
2022-09-06T01:43:46.335Z,61.40
2022-09-06T01:46:19.976Z,61.49
2022-09-06T01:49:08.478Z,60.90
2022-09-06T01:51:54.641Z,62.31
2022-09-06T01:54:41.591Z,62.54
2022-09-06T01:57:21.393Z,62.08
2022-09-06T02:00:09.222Z,62.79
2022-09-06T02:03:01.347Z,62.69
2022-09-06T02:05:34.772Z,62.57
2022-09-06T02:08:07.947Z,62.14
2022-09-06T02:10:48.645Z,62.35
2022-09-06T02:13:19.187Z,61.97
2022-09-06T02:15:48.032Z,62.05
2022-09-06T02:18:38.935Z,62.49
2022-09-06T02:21:10.405Z,62.70
2022-09-06T02:23:41.142Z,62.05
2022-09-06T02:26:13.845Z,61.70
2022-09-06T02:28:46.758Z,61.42
2022-09-06T02:31:23.695Z,61.10
2022-09-06T02:33:54.259Z,61.93
2022-09-06T02:36:27.707Z,61.86
2022-09-06T02:38:59.067Z,61.88
2022-09-06T02:41:32.264Z,61.56
2022-09-06T02:44:03.161Z,62.54
2022-09-06T02:46:36.598Z,62.04
2022-09-06T02:49:06.860Z,61.81
2022-09-06T02:51:40.963Z,61.78
2022-09-06T02:54:10.806Z,61.92
2022-09-06T02:56:43.769Z,62.02
2022-09-06T02:59:13.716Z,61.86
2022-09-06T03:01:44.667Z,61.92
2022-09-06T03:04:11.948Z,63.15
2022-09-06T03:06:39.596Z,62.90
2022-09-06T03:09:11.062Z,63.42
2022-09-06T03:11:38.795Z,63.10
2022-09-06T03:14:11.450Z,62.82
2022-09-06T03:16:46.228Z,62.61
2022-09-06T03:19:16.575Z,63.83
2022-09-06T03:21:46.682Z,63.64
2022-09-06T03:24:22.296Z,63.42
2022-09-06T03:26:52.510Z,62.81
2022-09-06T03:29:23.310Z,63.52
2022-09-06T03:31:53.320Z,63.40
2022-09-06T03:34:21.308Z,63.15
2022-09-06T03:36:54.483Z,62.81
2022-09-06T03:39:24.938Z,62.74
2022-09-06T03:41:57.477Z,62.94
2022-09-06T03:44:30.491Z,62.83
2022-09-06T03:47:05.576Z,62.82
2022-09-06T03:49:37.898Z,63.73
2022-09-06T03:52:08.530Z,63.33
2022-09-06T03:54:37.334Z,63.42
2022-09-06T03:57:07.586Z,63.84
2022-09-06T03:59:38.391Z,63.55
2022-09-06T04:02:13.916Z,64.25
2022-09-06T04:04:45.435Z,64.53
2022-09-06T04:07:15.819Z,64.59
2022-09-06T04:09:45.974Z,64.49
2022-09-06T04:12:16.389Z,64.14
2022-09-06T04:14:47.011Z,64.24
2022-09-06T04:17:14.988Z,64.12
2022-09-06T04:19:42.738Z,64.34
2022-09-06T04:22:15.941Z,64.72
2022-09-06T04:24:51.813Z,64.56
2022-09-06T04:27:22.204Z,64.71
2022-09-06T04:29:56.796Z,64.84
2022-09-06T04:32:26.544Z,65.02
2022-09-06T04:34:57.524Z,65.14
2022-09-06T04:37:27.485Z,65.91
2022-09-06T04:40:01.181Z,66.16
2022-09-06T04:42:34.443Z,65.64
2022-09-06T04:45:02.303Z,65.56
2022-09-06T04:47:34.013Z,65.03
2022-09-06T04:50:02.428Z,64.17
2022-09-06T04:52:30.801Z,65.16
2022-09-06T04:55:04.337Z,65.22
2022-09-06T04:57:40.892Z,64.96
2022-09-06T05:00:11.691Z,64.90
2022-09-06T05:02:45.573Z,65.25
2022-09-06T05:05:16.018Z,65.15
2022-09-06T05:07:46.591Z,65.48
2022-09-06T05:10:16.639Z,65.05
2022-09-06T05:12:51.945Z,65.23
2022-09-06T05:15:25.534Z,65.57
2022-09-06T05:18:04.097Z,65.34
2022-09-06T05:20:38.199Z,66.91
2022-09-06T05:23:05.843Z,67.51
2022-09-06T05:25:36.603Z,67.55
2022-09-06T05:28:06.730Z,68.25
2022-09-06T05:30:39.866Z,67.83
2022-09-06T05:33:10.069Z,66.96
2022-09-06T05:35:42.569Z,66.14
2022-09-06T05:38:17.770Z,65.09
2022-09-06T05:40:48.727Z,66.32
2022-09-06T05:43:21.049Z,65.92
2022-09-06T05:45:54.945Z,65.08
2022-09-06T05:48:25.514Z,65.37
2022-09-06T05:51:04.124Z,65.25
2022-09-06T05:53:38.526Z,64.92
2022-09-06T05:56:10.588Z,64.93
2022-09-06T05:58:40.867Z,65.34
2022-09-06T06:01:14.470Z,65.00
2022-09-06T06:03:44.367Z,63.06
2022-09-06T06:06:14.749Z,64.00
2022-09-06T06:08:48.605Z,63.58
2022-09-06T06:11:21.586Z,64.25
2022-09-06T06:13:58.987Z,63.26
2022-09-06T06:16:37.341Z,64.25
2022-09-06T06:19:10.930Z,64.05
2022-09-06T06:21:44.778Z,63.23
2022-09-06T06:24:17.125Z,63.30
2022-09-06T06:26:50.201Z,64.54
2022-09-06T06:29:25.374Z,64.51
2022-09-06T06:31:58.726Z,64.11
2022-09-06T06:34:26.591Z,65.36
2022-09-06T06:36:58.796Z,65.32
2022-09-06T06:39:29.424Z,64.05
2022-09-06T06:41:57.182Z,63.13
2022-09-06T06:44:35.468Z,64.05
2022-09-06T06:47:10.799Z,63.07
2022-09-06T06:49:43.385Z,62.59
2022-09-06T06:52:12.028Z,62.90
2022-09-06T06:54:40.186Z,63.35
2022-09-06T06:57:12.844Z,63.03
2022-09-06T06:59:43.346Z,63.85
2022-09-06T07:02:19.657Z,62.79
2022-09-06T07:04:49.929Z,62.13
2022-09-06T07:13:00.900Z,61.50
2022-09-06T07:15:36.087Z,61.47
2022-09-06T07:18:06.914Z,61.33
2022-09-06T07:26:24.983Z,62.10
2022-09-06T07:28:57.768Z,61.68
2022-09-06T07:34:25.539Z,60.75
2022-09-06T07:36:54.989Z,60.91
2022-09-06T07:39:25.761Z,60.67
2022-09-06T07:41:59.837Z,61.51
2022-09-06T07:44:32.826Z,61.29
2022-09-06T07:53:15.062Z,59.79
2022-09-06T07:55:54.006Z,57.97
2022-09-06T07:58:24.628Z,58.78
2022-09-06T08:00:58.141Z,58.56
2022-09-06T08:03:30.751Z,57.80
2022-09-06T08:06:10.512Z,57.72
2022-09-06T08:11:35.196Z,58.08
2022-09-06T08:14:03.982Z,57.19
2022-09-06T08:16:39.484Z,57.35
2022-09-06T08:19:12.627Z,55.08
2022-09-06T08:21:43.007Z,57.44
2022-09-06T08:24:11.448Z,57.72
2022-09-06T08:26:46.728Z,57.83
2022-09-06T08:29:16.873Z,56.15
2022-09-06T08:31:44.853Z,56.52
2022-09-06T08:34:16.120Z,56.89
2022-09-06T08:36:49.170Z,56.83
2022-09-06T08:39:22.669Z,57.10
2022-09-06T08:42:11.278Z,56.67
2022-09-06T08:44:56.393Z,57.52
2022-09-06T08:47:25.250Z,56.28
2022-09-06T08:49:58.864Z,56.85
2022-09-06T08:52:34.933Z,56.64
2022-09-06T08:55:08.686Z,56.07
2022-09-06T08:57:43.491Z,56.92
2022-09-06T09:00:16.281Z,55.96
2022-09-06T09:02:52.011Z,57.88
2022-09-06T09:05:25.863Z,55.96
2022-09-06T09:08:05.971Z,56.59
2022-09-06T09:10:57.608Z,56.00
2022-09-06T09:13:31.484Z,55.12
2022-09-06T09:16:04.976Z,55.10
2022-09-06T09:18:42.586Z,55.59
2022-09-06T09:21:17.085Z,54.89
2022-09-06T09:23:49.718Z,55.33
2022-09-06T09:26:22.721Z,54.57
2022-09-06T09:29:12.789Z,55.64
2022-09-06T09:31:53.431Z,56.16
2022-09-06T09:34:29.086Z,56.31
2022-09-06T09:40:10.970Z,54.63
2022-09-06T09:42:41.796Z,55.50
2022-09-06T09:45:41.135Z,54.75
2022-09-06T09:48:27.194Z,57.09
2022-09-06T09:50:57.475Z,53.13
2022-09-06T09:53:26.795Z,52.01
2022-09-06T09:55:58.445Z,52.15
2022-09-06T09:58:35.532Z,52.70
2022-09-06T10:01:29.664Z,53.05
2022-09-06T10:07:11.170Z,50.85
2022-09-06T10:09:41.619Z,50.08
2022-09-06T10:12:11.904Z,50.26
2022-09-06T10:14:53.937Z,53.01
2022-09-06T10:17:31.923Z,51.48
2022-09-06T10:20:08.369Z,51.66
2022-09-06T10:22:46.775Z,50.93
2022-09-06T10:25:31.753Z,49.13
2022-09-06T10:28:18.624Z,50.53
2022-09-06T10:31:06.051Z,47.79
2022-09-06T10:33:45.977Z,50.10
2022-09-06T10:36:21.364Z,50.26
2022-09-06T10:38:54.502Z,52.12
2022-09-06T10:41:40.990Z,51.87
2022-09-06T10:44:14.516Z,50.91
2022-09-06T10:46:46.180Z,53.74
2022-09-06T10:49:21.736Z,43.89
2022-09-06T10:51:52.473Z,47.40
2022-09-06T10:54:24.111Z,45.60
2022-09-06T10:56:56.289Z,45.36
2022-09-06T10:59:42.509Z,45.62
2022-09-06T11:02:19.502Z,44.58
2022-09-06T11:07:41.746Z,47.57
2022-09-06T11:10:19.793Z,45.61
2022-09-06T11:12:59.624Z,47.47
2022-09-06T11:15:30.684Z,46.79
2022-09-06T11:18:03.196Z,44.03
2022-09-06T11:20:38.793Z,43.26
2022-09-06T11:23:25.243Z,44.49
2022-09-06T11:26:11.755Z,38.78
2022-09-06T11:28:45.603Z,36.02
2022-09-06T11:34:10.413Z,37.58
2022-09-06T11:36:39.401Z,35.84
2022-09-06T11:39:12.960Z,33.19
2022-09-06T11:41:44.989Z,31.53
2022-09-06T11:44:21.439Z,31.92
2022-09-06T11:46:51.501Z,26.95
2022-09-06T11:49:31.989Z,28.27
2022-09-06T11:52:01.955Z,30.53
2022-09-06T11:54:36.511Z,28.46
2022-09-06T11:57:12.677Z,28.64
2022-09-06T11:59:48.602Z,24.69
2022-09-06T12:02:33.387Z,30.16
2022-09-06T12:05:03.513Z,28.66
2022-09-06T12:07:40.415Z,26.90
2022-09-06T12:10:26.758Z,25.45
2022-09-06T12:12:57.906Z,26.96
2022-09-06T12:15:28.991Z,26.36
2022-09-06T12:17:57.369Z,25.45
2022-09-06T12:20:43.620Z,29.33
2022-09-06T12:23:40.753Z,26.16
2022-09-06T12:26:10.876Z,26.75
2022-09-06T12:28:46.828Z,27.86
2022-09-06T12:31:25.312Z,24.36
2022-09-06T12:33:55.481Z,27.96
2022-09-06T12:36:30.413Z,26.53
2022-09-06T12:39:07.946Z,25.83
2022-09-06T12:41:43.284Z,28.82
2022-09-06T12:44:18.363Z,27.90
2022-09-06T12:46:49.217Z,26.55
2022-09-06T12:49:21.258Z,25.88
2022-09-06T12:51:52.050Z,28.30
2022-09-06T12:54:22.021Z,28.34
2022-09-06T12:57:07.888Z,25.92
2022-09-06T12:59:35.677Z,24.99
2022-09-06T13:02:11.891Z,26.38
2022-09-06T13:04:41.698Z,27.33
2022-09-06T13:07:12.993Z,25.19
2022-09-06T13:09:43.357Z,25.70
2022-09-06T13:12:17.886Z,25.03
2022-09-06T13:14:50.589Z,26.08
2022-09-06T13:17:30.049Z,24.70
2022-09-06T13:20:09.416Z,27.09
2022-09-06T13:22:50.256Z,26.64
2022-09-06T13:25:31.660Z,25.64
2022-09-06T13:28:03.009Z,26.71
2022-09-06T13:30:32.871Z,26.65
2022-09-06T13:33:07.060Z,26.99
2022-09-06T13:35:39.748Z,27.63
2022-09-06T13:38:22.617Z,27.79
2022-09-06T13:41:11.529Z,28.06
2022-09-06T13:43:50.738Z,27.03
2022-09-06T13:46:18.547Z,29.64
2022-09-06T13:48:54.647Z,31.93
2022-09-06T13:51:26.966Z,32.84
2022-09-06T13:54:09.535Z,35.19
2022-09-06T13:56:39.510Z,36.13
2022-09-06T13:59:13.397Z,35.11
2022-09-06T14:01:44.875Z,36.75
2022-09-06T14:07:16.790Z,39.09
2022-09-06T14:09:52.456Z,40.09
2022-09-06T14:12:27.390Z,40.09
2022-09-06T14:14:59.850Z,37.08
2022-09-06T14:17:30.339Z,39.80
2022-09-06T14:20:01.123Z,38.19
2022-09-06T14:22:33.533Z,37.50
2022-09-06T14:25:03.648Z,38.96
2022-09-06T14:28:01.089Z,39.11
2022-09-06T14:30:38.455Z,41.03
2022-09-06T14:33:12.015Z,40.33
2022-09-06T14:35:44.613Z,41.91
2022-09-06T14:38:13.334Z,40.30
2022-09-06T14:40:44.207Z,41.25
2022-09-06T14:43:12.078Z,41.52
2022-09-06T14:45:45.274Z,43.43
2022-09-06T14:48:18.341Z,42.14
2022-09-06T14:50:48.390Z,41.41
2022-09-06T14:53:39.347Z,39.82
2022-09-06T14:56:16.788Z,43.94
2022-09-06T14:58:46.792Z,41.98
2022-09-06T15:01:24.785Z,41.55
2022-09-06T15:03:55.981Z,40.01
2022-09-06T15:06:34.814Z,42.63
2022-09-06T15:09:08.249Z,42.22
2022-09-06T15:11:37.591Z,39.81
2022-09-06T15:14:08.513Z,40.57
2022-09-06T15:16:38.745Z,41.28
2022-09-06T15:19:08.695Z,42.85
2022-09-06T15:21:38.704Z,41.01
2022-09-06T15:24:12.355Z,40.28
2022-09-06T15:26:43.381Z,39.41
2022-09-06T15:29:16.758Z,41.20
2022-09-06T15:31:51.226Z,38.34
2022-09-06T15:34:24.917Z,39.11
2022-09-06T15:36:56.502Z,39.37
2022-09-06T15:39:31.324Z,39.45
2022-09-06T15:42:01.711Z,39.49
2022-09-06T15:44:34.792Z,41.38
2022-09-06T15:47:03.644Z,39.07
2022-09-06T15:49:36.713Z,40.94
2022-09-06T15:52:09.599Z,40.00
2022-09-06T15:54:56.284Z,41.54
2022-09-06T15:57:24.586Z,41.22
2022-09-06T15:59:58.300Z,41.25
2022-09-06T16:02:30.963Z,40.38
2022-09-06T16:04:58.601Z,42.24
2022-09-06T16:07:31.960Z,45.81
2022-09-06T16:10:02.022Z,41.74
2022-09-06T16:12:29.888Z,42.03
2022-09-06T16:14:59.903Z,40.71
2022-09-06T16:17:33.838Z,41.26
2022-09-06T16:20:07.634Z,40.66
2022-09-06T16:22:41.167Z,41.75
2022-09-06T16:25:12.277Z,42.60
2022-09-06T16:27:42.463Z,42.16
2022-09-06T16:30:13.528Z,43.55
2022-09-06T16:32:44.591Z,43.10
2022-09-06T16:35:14.810Z,44.30
2022-09-06T16:37:46.422Z,44.55
2022-09-06T16:40:17.800Z,42.21
2022-09-06T16:42:47.785Z,42.84
2022-09-06T16:45:18.410Z,44.43
2022-09-06T16:47:48.637Z,43.58
2022-09-06T16:50:22.969Z,45.69
2022-09-06T16:52:55.700Z,46.80
2022-09-06T16:55:29.391Z,43.23
2022-09-06T16:58:00.404Z,43.38
2022-09-06T17:00:30.205Z,46.58
2022-09-06T17:02:58.721Z,47.41
2022-09-06T17:05:26.585Z,44.67
2022-09-06T17:08:02.121Z,45.80
2022-09-06T17:10:32.662Z,46.32
2022-09-06T17:13:03.843Z,46.85
2022-09-06T17:15:55.203Z,48.85
2022-09-06T17:18:29.751Z,49.07
2022-09-06T17:21:03.974Z,48.90
2022-09-06T17:23:35.088Z,49.82
2022-09-06T17:26:08.507Z,48.05
2022-09-06T17:28:41.163Z,47.38
2022-09-06T17:31:13.451Z,49.58
2022-09-06T17:33:48.764Z,48.40
2022-09-06T17:36:23.224Z,50.68
2022-09-06T17:38:55.678Z,51.18
2022-09-06T17:41:37.115Z,51.31
2022-09-06T17:44:11.213Z,51.63
2022-09-06T17:46:52.256Z,51.91
2022-09-06T17:49:35.816Z,51.83
2022-09-06T17:52:08.475Z,51.35
2022-09-06T17:54:37.132Z,51.95
2022-09-06T17:57:07.159Z,51.64
2022-09-06T17:59:39.747Z,51.91
2022-09-06T18:02:09.669Z,52.13
2022-09-06T18:04:38.289Z,52.35
2022-09-06T18:07:08.797Z,52.39
2022-09-06T18:09:42.575Z,52.49
2022-09-06T18:12:14.986Z,52.08
2022-09-06T18:14:45.408Z,52.30
2022-09-06T18:17:56.787Z,52.94
2022-09-06T18:20:29.421Z,52.98
2022-09-06T18:23:07.142Z,52.94
2022-09-06T18:25:38.603Z,53.10
2022-09-06T18:28:08.618Z,53.04
2022-09-06T18:30:36.920Z,53.06
2022-09-06T18:33:07.295Z,53.21
2022-09-06T18:35:43.329Z,53.02
2022-09-06T18:38:21.316Z,53.01
2022-09-06T18:40:53.480Z,52.68
2022-09-06T18:43:29.717Z,53.24
2022-09-06T18:46:01.733Z,54.44
2022-09-06T18:48:31.455Z,55.30
2022-09-06T18:51:11.507Z,54.15
2022-09-06T18:53:46.678Z,54.26
2022-09-06T18:56:19.669Z,54.03
2022-09-06T18:58:49.731Z,54.03
2022-09-06T19:01:22.282Z,53.97
2022-09-06T19:03:53.147Z,54.01
2022-09-06T19:06:25.486Z,54.20
2022-09-06T19:08:56.662Z,53.64
2022-09-06T19:11:35.310Z,52.72
2022-09-06T19:14:10.115Z,54.22
2022-09-06T19:16:42.557Z,54.09
2022-09-06T19:19:15.623Z,54.78
2022-09-06T19:21:47.799Z,52.89
2022-09-06T19:24:25.461Z,54.21
2022-09-06T19:26:55.824Z,54.62
2022-09-06T19:29:30.278Z,54.49
2022-09-06T19:32:00.988Z,54.16
2022-09-06T19:34:34.558Z,55.39
2022-09-06T19:37:02.192Z,54.81
2022-09-06T19:39:36.762Z,53.28
2022-09-06T19:42:10.393Z,55.47
2022-09-06T19:44:44.636Z,56.28
2022-09-06T19:47:15.173Z,56.13
2022-09-06T19:49:45.672Z,57.70
2022-09-06T19:52:16.077Z,57.13
2022-09-06T19:54:48.970Z,56.06
2022-09-06T19:57:22.819Z,56.86
2022-09-06T19:59:54.882Z,56.93
2022-09-06T20:02:25.333Z,57.12
2022-09-06T20:04:52.778Z,57.58
2022-09-06T20:07:28.520Z,58.04
2022-09-06T20:10:02.476Z,57.56
2022-09-06T20:12:36.448Z,57.65
2022-09-06T20:15:09.359Z,58.75
2022-09-06T20:17:37.976Z,58.81
2022-09-06T20:20:06.162Z,59.01
2022-09-06T20:22:39.568Z,58.79
2022-09-06T20:25:12.029Z,59.05
2022-09-06T20:27:44.424Z,58.87
2022-09-06T20:30:15.083Z,59.39
2022-09-06T20:32:45.873Z,59.57
2022-09-06T20:35:18.169Z,60.11
2022-09-06T20:37:51.969Z,60.81
2022-09-06T20:40:19.956Z,60.63
2022-09-06T20:42:57.595Z,61.09
2022-09-06T20:45:28.736Z,60.93
2022-09-06T20:48:01.807Z,61.08
2022-09-06T20:50:32.371Z,61.27
2022-09-06T20:53:02.489Z,61.42
2022-09-06T20:55:35.557Z,60.92
2022-09-06T20:58:09.970Z,61.52
2022-09-06T21:00:42.933Z,60.70
2022-09-06T21:03:18.465Z,61.11
2022-09-06T21:05:48.740Z,61.37
2022-09-06T21:08:24.306Z,60.90
2022-09-06T21:11:03.734Z,60.62
2022-09-06T21:13:34.732Z,61.32
2022-09-06T21:16:08.290Z,60.99
2022-09-06T21:18:41.375Z,61.32
2022-09-06T21:21:16.281Z,62.19
2022-09-06T21:23:46.441Z,62.12
2022-09-06T21:26:19.101Z,61.28
2022-09-06T21:28:49.912Z,60.78
2022-09-06T21:31:24.106Z,60.50
2022-09-06T21:33:57.992Z,60.61
2022-09-06T21:36:29.384Z,60.42
2022-09-06T21:39:00.032Z,59.42
2022-09-06T21:41:32.019Z,59.67
2022-09-06T21:44:06.126Z,60.77
2022-09-06T21:46:39.286Z,58.80
2022-09-06T21:49:08.557Z,58.91
2022-09-06T21:51:42.121Z,59.93
2022-09-06T21:54:10.089Z,58.61
2022-09-06T21:56:40.418Z,59.01
2022-09-06T21:59:12.475Z,58.66
2022-09-06T22:01:45.402Z,59.23
2022-09-06T22:04:13.939Z,59.77
2022-09-06T22:06:49.765Z,59.03
2022-09-06T22:09:22.163Z,59.14
2022-09-06T22:11:57.890Z,57.79
2022-09-06T22:14:30.205Z,58.82
2022-09-06T22:16:57.932Z,59.30
2022-09-06T22:19:28.275Z,57.96
2022-09-06T22:21:59.164Z,57.63
2022-09-06T22:24:32.099Z,59.36
2022-09-06T22:27:02.815Z,59.59
2022-09-06T22:29:30.745Z,58.39
2022-09-06T22:32:00.120Z,57.50
2022-09-06T22:34:32.907Z,57.47
2022-09-06T22:37:06.958Z,57.48
2022-09-06T22:39:40.723Z,56.62
2022-09-06T22:42:11.352Z,57.80
2022-09-06T22:44:42.375Z,56.89
2022-09-06T22:47:12.923Z,57.51
2022-09-06T22:49:47.707Z,56.24
2022-09-06T22:52:20.975Z,57.91
2022-09-06T22:54:48.833Z,57.93
2022-09-06T22:57:19.087Z,57.31
2022-09-06T22:59:49.448Z,57.03
2022-09-06T23:02:21.992Z,57.05
2022-09-06T23:04:50.961Z,57.71
2022-09-06T23:07:21.117Z,57.94
2022-09-06T23:09:53.850Z,57.31
2022-09-06T23:12:23.991Z,57.99
2022-09-06T23:14:59.034Z,59.21
2022-09-06T23:17:30.301Z,57.63
2022-09-06T23:20:00.036Z,58.12
2022-09-06T23:22:31.337Z,57.60
2022-09-06T23:24:59.273Z,58.75
2022-09-06T23:27:29.481Z,58.26
2022-09-06T23:30:03.127Z,56.49
2022-09-06T23:32:34.957Z,57.11
2022-09-06T23:35:17.367Z,58.85
2022-09-06T23:37:45.123Z,58.75
2022-09-06T23:40:17.719Z,58.63
2022-09-06T23:42:50.630Z,58.36
2022-09-06T23:45:23.855Z,57.53
2022-09-06T23:47:53.114Z,57.11
2022-09-06T23:50:23.060Z,58.60
2022-09-06T23:52:52.966Z,58.52
2022-09-06T23:55:23.302Z,57.96
2022-09-06T23:57:50.802Z,57.71
